sensor_id;sensor_type;location;lat;lon;timestamp;temperature;humidity
2889;DHT22;1453;42.708;23.282;2023-12-28T00:01:35;5.20;99.90
2889;DHT22;1453;42.708;23.282;2023-12-28T00:04:01;5.00;99.90
2889;DHT22;1453;42.708;23.282;2023-12-28T00:06:27;5.00;99.90
2889;DHT22;1453;42.708;23.282;2023-12-28T00:08:52;4.90;99.90
2889;DHT22;1453;42.708;23.282;2023-12-28T00:11:18;4.90;99.90
2889;DHT22;1453;42.708;23.282;2023-12-28T00:13:46;4.90;99.90
2889;DHT22;1453;42.708;23.282;2023-12-28T00:16:11;4.90;99.90
2889;DHT22;1453;42.708;23.282;2023-12-28T00:18:37;4.90;99.90
2889;DHT22;1453;42.708;23.282;2023-12-28T00:21:04;5.00;99.90
2889;DHT22;1453;42.708;23.282;2023-12-28T00:23:30;5.00;99.90
2889;DHT22;1453;42.708;23.282;2023-12-28T00:25:56;4.90;99.90
2889;DHT22;1453;42.708;23.282;2023-12-28T00:28:22;4.90;99.90
2889;DHT22;1453;42.708;23.282;2023-12-28T00:30:47;4.60;99.90
2889;DHT22;1453;42.708;23.282;2023-12-28T00:33:13;4.70;99.90
2889;DHT22;1453;42.708;23.282;2023-12-28T00:35:39;4.70;99.90
2889;DHT22;1453;42.708;23.282;2023-12-28T00:38:05;4.80;99.90
2889;DHT22;1453;42.708;23.282;2023-12-28T00:40:31;4.80;99.90
2889;DHT22;1453;42.708;23.282;2023-12-28T00:42:57;4.80;99.90
2889;DHT22;1453;42.708;23.282;2023-12-28T00:45:23;4.90;99.90
2889;DHT22;1453;42.708;23.282;2023-12-28T00:47:49;4.90;99.90
2889;DHT22;1453;42.708;23.282;2023-12-28T00:50:17;4.90;99.90
2889;DHT22;1453;42.708;23.282;2023-12-28T00:52:43;4.70;99.90
2889;DHT22;1453;42.708;23.282;2023-12-28T00:55:10;4.90;99.90
2889;DHT22;1453;42.708;23.282;2023-12-28T00:57:36;4.90;99.90
2889;DHT22;1453;42.708;23.282;2023-12-28T01:00:02;4.90;99.90
2889;DHT22;1453;42.708;23.282;2023-12-28T01:02:29;5.00;99.90
2889;DHT22;1453;42.708;23.282;2023-12-28T01:04:55;4.90;99.90
2889;DHT22;1453;42.708;23.282;2023-12-28T01:07:21;4.90;99.90
2889;DHT22;1453;42.708;23.282;2023-12-28T01:09:47;4.50;99.90
2889;DHT22;1453;42.708;23.282;2023-12-28T01:12:13;4.10;99.90
2889;DHT22;1453;42.708;23.282;2023-12-28T01:14:39;4.00;99.90
2889;DHT22;1453;42.708;23.282;2023-12-28T01:17:05;3.90;99.90
2889;DHT22;1453;42.708;23.282;2023-12-28T01:19:31;4.00;99.90
2889;DHT22;1453;42.708;23.282;2023-12-28T01:21:57;4.10;99.90
2889;DHT22;1453;42.708;23.282;2023-12-28T01:24:23;4.30;99.90
2889;DHT22;1453;42.708;23.282;2023-12-28T01:26:50;4.20;99.90
2889;DHT22;1453;42.708;23.282;2023-12-28T01:29:15;3.90;99.90
2889;DHT22;1453;42.708;23.282;2023-12-28T01:31:41;4.00;99.90
2889;DHT22;1453;42.708;23.282;2023-12-28T01:34:07;4.20;99.90
2889;DHT22;1453;42.708;23.282;2023-12-28T01:36:34;4.40;99.90
2889;DHT22;1453;42.708;23.282;2023-12-28T01:39:00;4.50;99.90
2889;DHT22;1453;42.708;23.282;2023-12-28T01:41:26;4.60;99.90
2889;DHT22;1453;42.708;23.282;2023-12-28T01:43:52;4.70;99.90
2889;DHT22;1453;42.708;23.282;2023-12-28T01:46:20;4.60;99.90
2889;DHT22;1453;42.708;23.282;2023-12-28T01:48:50;4.50;99.90
2889;DHT22;1453;42.708;23.282;2023-12-28T01:51:16;4.40;99.90
2889;DHT22;1453;42.708;23.282;2023-12-28T01:53:44;4.50;99.90
2889;DHT22;1453;42.708;23.282;2023-12-28T01:56:10;4.30;99.90
2889;DHT22;1453;42.708;23.282;2023-12-28T01:58:38;4.40;99.90
2889;DHT22;1453;42.708;23.282;2023-12-28T02:01:06;4.30;99.90
2889;DHT22;1453;42.708;23.282;2023-12-28T02:03:32;4.30;99.90
2889;DHT22;1453;42.708;23.282;2023-12-28T02:05:59;4.20;99.90
2889;DHT22;1453;42.708;23.282;2023-12-28T02:08:26;4.20;99.90
2889;DHT22;1453;42.708;23.282;2023-12-28T02:10:52;4.20;99.90
2889;DHT22;1453;42.708;23.282;2023-12-28T02:13:20;4.10;99.90
2889;DHT22;1453;42.708;23.282;2023-12-28T02:15:51;4.10;99.90
2889;DHT22;1453;42.708;23.282;2023-12-28T02:18:25;3.90;99.90
2889;DHT22;1453;42.708;23.282;2023-12-28T02:20:58;3.90;99.90
2889;DHT22;1453;42.708;23.282;2023-12-28T02:23:23;3.60;99.90
2889;DHT22;1453;42.708;23.282;2023-12-28T02:25:49;3.60;99.90
2889;DHT22;1453;42.708;23.282;2023-12-28T02:28:15;3.60;99.90
2889;DHT22;1453;42.708;23.282;2023-12-28T02:30:41;3.60;99.90
2889;DHT22;1453;42.708;23.282;2023-12-28T02:36:18;3.00;99.90
2889;DHT22;1453;42.708;23.282;2023-12-28T02:38:49;3.00;99.90
2889;DHT22;1453;42.708;23.282;2023-12-28T02:41:17;2.90;99.90
2889;DHT22;1453;42.708;23.282;2023-12-28T02:43:43;2.40;99.90
2889;DHT22;1453;42.708;23.282;2023-12-28T02:46:09;2.50;99.90
2889;DHT22;1453;42.708;23.282;2023-12-28T02:48:35;2.60;99.90
2889;DHT22;1453;42.708;23.282;2023-12-28T02:51:01;2.60;99.90
2889;DHT22;1453;42.708;23.282;2023-12-28T02:53:27;2.50;99.90
2889;DHT22;1453;42.708;23.282;2023-12-28T02:55:53;2.60;99.90
2889;DHT22;1453;42.708;23.282;2023-12-28T02:58:19;2.50;99.90
2889;DHT22;1453;42.708;23.282;2023-12-28T03:00:45;2.60;99.90
2889;DHT22;1453;42.708;23.282;2023-12-28T03:03:11;2.40;99.90
2889;DHT22;1453;42.708;23.282;2023-12-28T03:05:37;2.60;99.90
2889;DHT22;1453;42.708;23.282;2023-12-28T03:08:03;2.60;99.90
2889;DHT22;1453;42.708;23.282;2023-12-28T03:10:29;2.70;99.90
2889;DHT22;1453;42.708;23.282;2023-12-28T03:12:55;2.60;99.90
2889;DHT22;1453;42.708;23.282;2023-12-28T03:15:21;2.50;99.90
2889;DHT22;1453;42.708;23.282;2023-12-28T03:17:47;2.60;99.90
2889;DHT22;1453;42.708;23.282;2023-12-28T03:20:16;2.70;99.90
2889;DHT22;1453;42.708;23.282;2023-12-28T03:22:45;2.70;99.90
2889;DHT22;1453;42.708;23.282;2023-12-28T03:25:11;2.80;99.90
2889;DHT22;1453;42.708;23.282;2023-12-28T03:27:37;2.70;99.90
2889;DHT22;1453;42.708;23.282;2023-12-28T03:30:03;2.50;99.90
2889;DHT22;1453;42.708;23.282;2023-12-28T03:32:34;2.50;99.90
2889;DHT22;1453;42.708;23.282;2023-12-28T03:35:04;2.70;99.90
2889;DHT22;1453;42.708;23.282;2023-12-28T03:37:32;2.70;99.90
2889;DHT22;1453;42.708;23.282;2023-12-28T03:39:58;2.80;99.90
2889;DHT22;1453;42.708;23.282;2023-12-28T03:42:24;2.50;99.90
2889;DHT22;1453;42.708;23.282;2023-12-28T03:44:50;2.40;99.90
2889;DHT22;1453;42.708;23.282;2023-12-28T03:47:16;2.30;99.90
2889;DHT22;1453;42.708;23.282;2023-12-28T03:49:42;2.30;99.90
2889;DHT22;1453;42.708;23.282;2023-12-28T03:52:08;2.20;99.90
2889;DHT22;1453;42.708;23.282;2023-12-28T03:54:34;2.10;99.90
2889;DHT22;1453;42.708;23.282;2023-12-28T03:57:00;2.30;99.90
2889;DHT22;1453;42.708;23.282;2023-12-28T03:59:27;2.10;99.90
2889;DHT22;1453;42.708;23.282;2023-12-28T04:01:53;1.80;99.90
2889;DHT22;1453;42.708;23.282;2023-12-28T04:04:19;1.50;99.90
2889;DHT22;1453;42.708;23.282;2023-12-28T04:06:45;1.50;99.90
2889;DHT22;1453;42.708;23.282;2023-12-28T04:09:14;1.40;99.90
2889;DHT22;1453;42.708;23.282;2023-12-28T04:11:40;1.30;99.90
2889;DHT22;1453;42.708;23.282;2023-12-28T04:14:06;1.30;99.90
2889;DHT22;1453;42.708;23.282;2023-12-28T04:16:32;1.10;99.90
2889;DHT22;1453;42.708;23.282;2023-12-28T04:18:58;1.20;99.90
2889;DHT22;1453;42.708;23.282;2023-12-28T04:21:24;1.30;99.90
2889;DHT22;1453;42.708;23.282;2023-12-28T04:23:50;1.40;99.90
2889;DHT22;1453;42.708;23.282;2023-12-28T04:26:18;1.50;99.90
2889;DHT22;1453;42.708;23.282;2023-12-28T04:28:47;1.50;99.90
2889;DHT22;1453;42.708;23.282;2023-12-28T04:31:13;1.40;99.90
2889;DHT22;1453;42.708;23.282;2023-12-28T04:33:39;1.60;99.90
2889;DHT22;1453;42.708;23.282;2023-12-28T04:36:05;1.70;99.90
2889;DHT22;1453;42.708;23.282;2023-12-28T04:38:31;1.80;99.90
2889;DHT22;1453;42.708;23.282;2023-12-28T04:40:58;1.90;99.90
2889;DHT22;1453;42.708;23.282;2023-12-28T04:43:24;2.20;99.90
2889;DHT22;1453;42.708;23.282;2023-12-28T04:45:51;2.40;99.90
2889;DHT22;1453;42.708;23.282;2023-12-28T04:48:17;2.30;99.90
2889;DHT22;1453;42.708;23.282;2023-12-28T04:50:49;2.30;99.90
2889;DHT22;1453;42.708;23.282;2023-12-28T04:53:15;2.20;99.90
2889;DHT22;1453;42.708;23.282;2023-12-28T04:55:41;2.30;99.90
2889;DHT22;1453;42.708;23.282;2023-12-28T04:58:07;2.40;99.90
2889;DHT22;1453;42.708;23.282;2023-12-28T05:00:33;2.40;99.90
2889;DHT22;1453;42.708;23.282;2023-12-28T05:02:59;2.40;99.90
2889;DHT22;1453;42.708;23.282;2023-12-28T05:05:25;2.30;99.90
2889;DHT22;1453;42.708;23.282;2023-12-28T05:07:51;2.30;99.90
2889;DHT22;1453;42.708;23.282;2023-12-28T05:10:17;2.30;99.90
2889;DHT22;1453;42.708;23.282;2023-12-28T05:12:43;2.30;99.90
2889;DHT22;1453;42.708;23.282;2023-12-28T05:15:09;2.40;99.90
2889;DHT22;1453;42.708;23.282;2023-12-28T05:17:36;2.40;99.90
2889;DHT22;1453;42.708;23.282;2023-12-28T05:20:02;2.30;99.90
2889;DHT22;1453;42.708;23.282;2023-12-28T05:22:28;2.30;99.90
2889;DHT22;1453;42.708;23.282;2023-12-28T05:24:54;2.30;99.90
2889;DHT22;1453;42.708;23.282;2023-12-28T05:27:19;2.50;99.90
2889;DHT22;1453;42.708;23.282;2023-12-28T05:29:45;2.50;99.90
2889;DHT22;1453;42.708;23.282;2023-12-28T05:32:11;2.60;99.90
2889;DHT22;1453;42.708;23.282;2023-12-28T05:34:37;2.60;99.90
2889;DHT22;1453;42.708;23.282;2023-12-28T05:37:03;2.70;99.90
2889;DHT22;1453;42.708;23.282;2023-12-28T05:39:29;2.70;99.90
2889;DHT22;1453;42.708;23.282;2023-12-28T05:41:55;2.70;99.90
2889;DHT22;1453;42.708;23.282;2023-12-28T05:44:21;2.60;99.90
2889;DHT22;1453;42.708;23.282;2023-12-28T05:46:47;2.50;99.90
2889;DHT22;1453;42.708;23.282;2023-12-28T05:49:13;2.50;99.90
2889;DHT22;1453;42.708;23.282;2023-12-28T05:51:40;2.50;99.90
2889;DHT22;1453;42.708;23.282;2023-12-28T05:54:10;2.40;99.90
2889;DHT22;1453;42.708;23.282;2023-12-28T05:56:36;2.40;99.90
2889;DHT22;1453;42.708;23.282;2023-12-28T05:59:02;2.50;99.90
2889;DHT22;1453;42.708;23.282;2023-12-28T06:01:28;2.60;99.90
2889;DHT22;1453;42.708;23.282;2023-12-28T06:03:54;2.60;99.90
2889;DHT22;1453;42.708;23.282;2023-12-28T06:06:21;2.50;99.90
2889;DHT22;1453;42.708;23.282;2023-12-28T06:08:47;2.40;99.90
2889;DHT22;1453;42.708;23.282;2023-12-28T06:11:13;2.50;99.90
2889;DHT22;1453;42.708;23.282;2023-12-28T06:13:39;2.50;99.90
2889;DHT22;1453;42.708;23.282;2023-12-28T06:16:05;2.40;99.90
2889;DHT22;1453;42.708;23.282;2023-12-28T06:18:31;2.60;99.90
2889;DHT22;1453;42.708;23.282;2023-12-28T06:20:57;2.90;99.90
2889;DHT22;1453;42.708;23.282;2023-12-28T06:23:26;3.20;99.90
2889;DHT22;1453;42.708;23.282;2023-12-28T06:25:52;3.60;99.90
2889;DHT22;1453;42.708;23.282;2023-12-28T06:28:20;4.00;99.90
2889;DHT22;1453;42.708;23.282;2023-12-28T06:30:46;4.40;99.90
2889;DHT22;1453;42.708;23.282;2023-12-28T06:33:12;4.80;99.90
2889;DHT22;1453;42.708;23.282;2023-12-28T06:35:38;5.10;99.90
2889;DHT22;1453;42.708;23.282;2023-12-28T06:38:04;5.30;99.90
2889;DHT22;1453;42.708;23.282;2023-12-28T06:40:29;5.70;99.90
2889;DHT22;1453;42.708;23.282;2023-12-28T06:42:55;6.00;99.90
2889;DHT22;1453;42.708;23.282;2023-12-28T06:45:21;6.20;99.90
2889;DHT22;1453;42.708;23.282;2023-12-28T06:47:53;6.60;99.90
2889;DHT22;1453;42.708;23.282;2023-12-28T06:50:19;7.00;99.90
2889;DHT22;1453;42.708;23.282;2023-12-28T06:52:45;7.30;99.90
2889;DHT22;1453;42.708;23.282;2023-12-28T06:55:11;7.60;99.90
2889;DHT22;1453;42.708;23.282;2023-12-28T06:57:39;7.50;99.90
2889;DHT22;1453;42.708;23.282;2023-12-28T07:00:06;8.00;99.90
2889;DHT22;1453;42.708;23.282;2023-12-28T07:02:32;8.30;99.90
2889;DHT22;1453;42.708;23.282;2023-12-28T07:04:58;8.50;99.90
2889;DHT22;1453;42.708;23.282;2023-12-28T07:07:24;8.70;99.90
2889;DHT22;1453;42.708;23.282;2023-12-28T07:09:53;8.70;99.90
2889;DHT22;1453;42.708;23.282;2023-12-28T07:12:19;8.60;99.90
2889;DHT22;1453;42.708;23.282;2023-12-28T07:14:46;8.90;99.90
2889;DHT22;1453;42.708;23.282;2023-12-28T07:17:12;8.60;99.90
2889;DHT22;1453;42.708;23.282;2023-12-28T07:19:43;8.80;99.90
2889;DHT22;1453;42.708;23.282;2023-12-28T07:22:09;8.50;99.90
2889;DHT22;1453;42.708;23.282;2023-12-28T07:24:35;8.10;99.90
2889;DHT22;1453;42.708;23.282;2023-12-28T07:27:01;8.70;99.90
2889;DHT22;1453;42.708;23.282;2023-12-28T07:29:27;9.30;99.90
2889;DHT22;1453;42.708;23.282;2023-12-28T07:31:54;9.90;99.90
2889;DHT22;1453;42.708;23.282;2023-12-28T07:34:20;10.20;97.00
2889;DHT22;1453;42.708;23.282;2023-12-28T07:36:46;10.30;97.30
2889;DHT22;1453;42.708;23.282;2023-12-28T07:39:11;10.60;96.00
2889;DHT22;1453;42.708;23.282;2023-12-28T07:41:38;10.30;94.80
2889;DHT22;1453;42.708;23.282;2023-12-28T07:44:04;10.40;95.50
2889;DHT22;1453;42.708;23.282;2023-12-28T07:46:30;10.60;96.20
2889;DHT22;1453;42.708;23.282;2023-12-28T07:48:56;11.40;93.20
2889;DHT22;1453;42.708;23.282;2023-12-28T07:51:22;12.00;90.30
2889;DHT22;1453;42.708;23.282;2023-12-28T07:53:48;12.30;86.50
2889;DHT22;1453;42.708;23.282;2023-12-28T07:56:16;11.80;85.80
2889;DHT22;1453;42.708;23.282;2023-12-28T07:58:42;12.00;87.30
2889;DHT22;1453;42.708;23.282;2023-12-28T08:01:11;12.20;85.60
2889;DHT22;1453;42.708;23.282;2023-12-28T08:03:37;12.30;83.90
2889;DHT22;1453;42.708;23.282;2023-12-28T08:06:03;12.70;83.10
2889;DHT22;1453;42.708;23.282;2023-12-28T08:08:31;12.90;79.00
2889;DHT22;1453;42.708;23.282;2023-12-28T08:10:57;11.60;82.20
2889;DHT22;1453;42.708;23.282;2023-12-28T08:13:23;12.30;83.80
2889;DHT22;1453;42.708;23.282;2023-12-28T08:15:49;13.10;81.30
2889;DHT22;1453;42.708;23.282;2023-12-28T08:18:15;13.40;77.60
2889;DHT22;1453;42.708;23.282;2023-12-28T08:20:41;14.00;74.40
2889;DHT22;1453;42.708;23.282;2023-12-28T08:23:07;14.00;74.30
2889;DHT22;1453;42.708;23.282;2023-12-28T08:25:33;14.40;72.70
2889;DHT22;1453;42.708;23.282;2023-12-28T08:27:58;14.20;72.20
2889;DHT22;1453;42.708;23.282;2023-12-28T08:30:24;14.60;71.20
2889;DHT22;1453;42.708;23.282;2023-12-28T08:32:50;15.00;70.60
2889;DHT22;1453;42.708;23.282;2023-12-28T08:35:16;15.00;70.00
2889;DHT22;1453;42.708;23.282;2023-12-28T08:37:42;14.30;69.40
2889;DHT22;1453;42.708;23.282;2023-12-28T08:40:09;14.10;71.20
2889;DHT22;1453;42.708;23.282;2023-12-28T08:42:35;13.60;72.70
2889;DHT22;1453;42.708;23.282;2023-12-28T08:45:01;14.30;72.20
2889;DHT22;1453;42.708;23.282;2023-12-28T08:47:27;14.90;70.80
2889;DHT22;1453;42.708;23.282;2023-12-28T08:49:53;15.30;70.50
2889;DHT22;1453;42.708;23.282;2023-12-28T08:52:19;15.40;67.20
2889;DHT22;1453;42.708;23.282;2023-12-28T08:54:45;15.00;68.60
2889;DHT22;1453;42.708;23.282;2023-12-28T08:57:11;14.90;67.90
2889;DHT22;1453;42.708;23.282;2023-12-28T08:59:37;15.30;67.80
2889;DHT22;1453;42.708;23.282;2023-12-28T09:02:03;15.60;66.20
2889;DHT22;1453;42.708;23.282;2023-12-28T09:04:29;15.90;66.40
2889;DHT22;1453;42.708;23.282;2023-12-28T09:06:56;16.30;65.20
2889;DHT22;1453;42.708;23.282;2023-12-28T09:09:22;15.60;64.70
2889;DHT22;1453;42.708;23.282;2023-12-28T09:11:48;15.20;66.00
2889;DHT22;1453;42.708;23.282;2023-12-28T09:14:14;14.90;66.40
2889;DHT22;1453;42.708;23.282;2023-12-28T09:16:40;15.20;69.00
2889;DHT22;1453;42.708;23.282;2023-12-28T09:19:07;16.00;66.50
2889;DHT22;1453;42.708;23.282;2023-12-28T09:21:34;14.50;66.90
2889;DHT22;1453;42.708;23.282;2023-12-28T09:24:00;13.90;69.00
2889;DHT22;1453;42.708;23.282;2023-12-28T09:26:26;14.30;70.00
2889;DHT22;1453;42.708;23.282;2023-12-28T09:28:52;15.20;68.00
2889;DHT22;1453;42.708;23.282;2023-12-28T09:31:18;15.00;67.00
2889;DHT22;1453;42.708;23.282;2023-12-28T09:33:44;15.30;68.40
2889;DHT22;1453;42.708;23.282;2023-12-28T09:36:10;15.30;67.30
2889;DHT22;1453;42.708;23.282;2023-12-28T09:38:38;16.10;67.10
2889;DHT22;1453;42.708;23.282;2023-12-28T09:41:11;16.30;65.50
2889;DHT22;1453;42.708;23.282;2023-12-28T09:46:47;16.10;63.30
2889;DHT22;1453;42.708;23.282;2023-12-28T09:49:13;15.80;65.10
2889;DHT22;1453;42.708;23.282;2023-12-28T09:51:39;15.90;65.00
2889;DHT22;1453;42.708;23.282;2023-12-28T09:54:05;15.90;64.30
2889;DHT22;1453;42.708;23.282;2023-12-28T09:56:32;16.40;64.00
2889;DHT22;1453;42.708;23.282;2023-12-28T09:58:59;16.10;63.30
2889;DHT22;1453;42.708;23.282;2023-12-28T10:01:25;16.00;65.10
2889;DHT22;1453;42.708;23.282;2023-12-28T10:03:51;17.20;63.90
2889;DHT22;1453;42.708;23.282;2023-12-28T10:06:17;17.10;62.00
2889;DHT22;1453;42.708;23.282;2023-12-28T10:08:47;16.10;62.20
2889;DHT22;1453;42.708;23.282;2023-12-28T10:11:19;15.40;65.90
2889;DHT22;1453;42.708;23.282;2023-12-28T10:13:46;16.00;65.50
2889;DHT22;1453;42.708;23.282;2023-12-28T10:16:15;16.90;63.60
2889;DHT22;1453;42.708;23.282;2023-12-28T10:18:42;17.60;62.70
2889;DHT22;1453;42.708;23.282;2023-12-28T10:21:09;18.10;61.00
2889;DHT22;1453;42.708;23.282;2023-12-28T10:23:35;17.60;60.40
2889;DHT22;1453;42.708;23.282;2023-12-28T10:26:02;17.70;61.00
2889;DHT22;1453;42.708;23.282;2023-12-28T10:28:34;17.40;60.00
2889;DHT22;1453;42.708;23.282;2023-12-28T10:31:02;16.70;62.30
2889;DHT22;1453;42.708;23.282;2023-12-28T10:33:37;17.40;62.40
2889;DHT22;1453;42.708;23.282;2023-12-28T10:36:09;17.60;60.10
2889;DHT22;1453;42.708;23.282;2023-12-28T10:38:36;17.60;60.50
2889;DHT22;1453;42.708;23.282;2023-12-28T10:41:12;18.30;60.20
2889;DHT22;1453;42.708;23.282;2023-12-28T10:43:45;18.80;59.10
2889;DHT22;1453;42.708;23.282;2023-12-28T10:46:27;18.80;57.80
2889;DHT22;1453;42.708;23.282;2023-12-28T10:49:05;17.40;58.90
2889;DHT22;1453;42.708;23.282;2023-12-28T10:51:36;18.30;59.30
2889;DHT22;1453;42.708;23.282;2023-12-28T10:56:52;17.10;59.40
2889;DHT22;1453;42.708;23.282;2023-12-28T11:02:07;19.30;58.50
2889;DHT22;1453;42.708;23.282;2023-12-28T11:04:48;19.90;57.90
2889;DHT22;1453;42.708;23.282;2023-12-28T11:07:18;19.80;57.20
2889;DHT22;1453;42.708;23.282;2023-12-28T11:09:44;19.90;56.60
2889;DHT22;1453;42.708;23.282;2023-12-28T11:12:11;19.40;57.60
2889;DHT22;1453;42.708;23.282;2023-12-28T11:14:41;20.00;57.30
2889;DHT22;1453;42.708;23.282;2023-12-28T11:17:09;20.80;56.50
2889;DHT22;1453;42.708;23.282;2023-12-28T11:19:40;20.90;55.60
2889;DHT22;1453;42.708;23.282;2023-12-28T11:22:07;21.20;55.20
2889;DHT22;1453;42.708;23.282;2023-12-28T11:24:34;20.50;54.90
2889;DHT22;1453;42.708;23.282;2023-12-28T11:27:01;20.90;55.50
2889;DHT22;1453;42.708;23.282;2023-12-28T11:29:29;21.10;54.80
2889;DHT22;1453;42.708;23.282;2023-12-28T11:31:59;20.00;54.50
2889;DHT22;1453;42.708;23.282;2023-12-28T11:34:30;20.10;55.20
2889;DHT22;1453;42.708;23.282;2023-12-28T11:36:59;20.90;55.30
2889;DHT22;1453;42.708;23.282;2023-12-28T11:39:33;21.10;54.20
2889;DHT22;1453;42.708;23.282;2023-12-28T11:42:07;20.50;53.60
2889;DHT22;1453;42.708;23.282;2023-12-28T11:44:38;21.00;54.50
2889;DHT22;1453;42.708;23.282;2023-12-28T11:49:39;21.60;53.60
2889;DHT22;1453;42.708;23.282;2023-12-28T11:52:09;21.40;53.00
2889;DHT22;1453;42.708;23.282;2023-12-28T11:54:36;21.40;53.30
2889;DHT22;1453;42.708;23.282;2023-12-28T11:57:03;21.20;53.70
2889;DHT22;1453;42.708;23.282;2023-12-28T11:59:29;21.00;53.20
2889;DHT22;1453;42.708;23.282;2023-12-28T12:01:58;20.40;54.30
2889;DHT22;1453;42.708;23.282;2023-12-28T12:04:25;21.20;54.00
2889;DHT22;1453;42.708;23.282;2023-12-28T12:06:51;21.90;53.00
2889;DHT22;1453;42.708;23.282;2023-12-28T12:09:17;22.00;52.80
2889;DHT22;1453;42.708;23.282;2023-12-28T12:11:48;22.20;52.50
2889;DHT22;1453;42.708;23.282;2023-12-28T12:14:14;22.10;52.40
2889;DHT22;1453;42.708;23.282;2023-12-28T12:16:40;22.60;52.30
2889;DHT22;1453;42.708;23.282;2023-12-28T12:19:06;22.10;51.80
2889;DHT22;1453;42.708;23.282;2023-12-28T12:21:34;22.00;52.40
2889;DHT22;1453;42.708;23.282;2023-12-28T12:24:01;21.90;52.20
2889;DHT22;1453;42.708;23.282;2023-12-28T12:26:28;21.50;51.90
2889;DHT22;1453;42.708;23.282;2023-12-28T12:28:56;20.70;52.40
2889;DHT22;1453;42.708;23.282;2023-12-28T12:31:22;20.30;54.10
2889;DHT22;1453;42.708;23.282;2023-12-28T12:33:49;21.20;53.80
2889;DHT22;1453;42.708;23.282;2023-12-28T12:36:16;21.90;53.00
2889;DHT22;1453;42.708;23.282;2023-12-28T12:38:42;22.50;52.60
2889;DHT22;1453;42.708;23.282;2023-12-28T12:41:10;22.80;52.00
2889;DHT22;1453;42.708;23.282;2023-12-28T12:43:37;23.10;51.80
2889;DHT22;1453;42.708;23.282;2023-12-28T12:46:04;21.30;51.80
2889;DHT22;1453;42.708;23.282;2023-12-28T12:48:30;21.10;52.90
2889;DHT22;1453;42.708;23.282;2023-12-28T12:50:56;21.00;53.20
2889;DHT22;1453;42.708;23.282;2023-12-28T12:53:22;20.80;52.50
2889;DHT22;1453;42.708;23.282;2023-12-28T12:55:48;19.90;53.70
2889;DHT22;1453;42.708;23.282;2023-12-28T12:58:20;20.00;54.80
2889;DHT22;1453;42.708;23.282;2023-12-28T13:00:47;21.50;53.40
2889;DHT22;1453;42.708;23.282;2023-12-28T13:03:13;22.30;52.70
2889;DHT22;1453;42.708;23.282;2023-12-28T13:05:39;22.30;52.20
2889;DHT22;1453;42.708;23.282;2023-12-28T13:08:09;21.90;52.30
2889;DHT22;1453;42.708;23.282;2023-12-28T13:10:35;21.90;53.40
2889;DHT22;1453;42.708;23.282;2023-12-28T13:13:01;22.00;52.50
2889;DHT22;1453;42.708;23.282;2023-12-28T13:15:28;21.80;52.20
2889;DHT22;1453;42.708;23.282;2023-12-28T13:17:54;21.80;52.70
2889;DHT22;1453;42.708;23.282;2023-12-28T13:20:20;21.80;52.20
2889;DHT22;1453;42.708;23.282;2023-12-28T13:22:46;21.70;52.00
2889;DHT22;1453;42.708;23.282;2023-12-28T13:25:12;22.20;51.70
2889;DHT22;1453;42.708;23.282;2023-12-28T13:27:38;22.00;51.80
2889;DHT22;1453;42.708;23.282;2023-12-28T13:30:05;21.70;52.10
2889;DHT22;1453;42.708;23.282;2023-12-28T13:32:31;21.10;51.90
2889;DHT22;1453;42.708;23.282;2023-12-28T13:34:57;20.60;52.50
2889;DHT22;1453;42.708;23.282;2023-12-28T13:37:23;20.60;53.20
2889;DHT22;1453;42.708;23.282;2023-12-28T13:39:49;21.10;53.00
2889;DHT22;1453;42.708;23.282;2023-12-28T13:42:15;21.50;52.50
2889;DHT22;1453;42.708;23.282;2023-12-28T13:44:41;21.40;52.10
2889;DHT22;1453;42.708;23.282;2023-12-28T13:47:09;21.00;53.10
2889;DHT22;1453;42.708;23.282;2023-12-28T13:49:35;21.30;52.90
2889;DHT22;1453;42.708;23.282;2023-12-28T13:52:02;21.60;52.20
2889;DHT22;1453;42.708;23.282;2023-12-28T13:54:28;21.50;51.80
2889;DHT22;1453;42.708;23.282;2023-12-28T13:56:54;21.30;52.00
2889;DHT22;1453;42.708;23.282;2023-12-28T13:59:23;20.90;52.00
2889;DHT22;1453;42.708;23.282;2023-12-28T14:01:49;21.10;52.00
2889;DHT22;1453;42.708;23.282;2023-12-28T14:04:15;20.90;51.60
2889;DHT22;1453;42.708;23.282;2023-12-28T14:06:41;20.70;52.10
2889;DHT22;1453;42.708;23.282;2023-12-28T14:09:07;20.70;52.10
2889;DHT22;1453;42.708;23.282;2023-12-28T14:11:34;20.60;52.00
2889;DHT22;1453;42.708;23.282;2023-12-28T14:14:00;20.50;52.20
2889;DHT22;1453;42.708;23.282;2023-12-28T14:16:26;20.50;52.10
2889;DHT22;1453;42.708;23.282;2023-12-28T14:18:52;20.30;51.80
2889;DHT22;1453;42.708;23.282;2023-12-28T14:21:18;20.20;51.70
2889;DHT22;1453;42.708;23.282;2023-12-28T14:23:45;20.00;51.90
2889;DHT22;1453;42.708;23.282;2023-12-28T14:26:15;19.70;52.50
2889;DHT22;1453;42.708;23.282;2023-12-28T14:28:44;19.30;53.10
2889;DHT22;1453;42.708;23.282;2023-12-28T14:31:11;19.20;53.00
2889;DHT22;1453;42.708;23.282;2023-12-28T14:33:38;18.90;53.20
2889;DHT22;1453;42.708;23.282;2023-12-28T14:36:53;18.70;53.60
2889;DHT22;1453;42.708;23.282;2023-12-28T14:39:04;17.90;53.80
2889;DHT22;1453;42.708;23.282;2023-12-28T14:41:35;16.90;54.80
2889;DHT22;1453;42.708;23.282;2023-12-28T14:44:02;16.20;56.10
2889;DHT22;1453;42.708;23.282;2023-12-28T14:46:28;15.30;56.90
2889;DHT22;1453;42.708;23.282;2023-12-28T14:48:55;14.90;58.40
2889;DHT22;1453;42.708;23.282;2023-12-28T14:51:22;14.70;58.60
2889;DHT22;1453;42.708;23.282;2023-12-28T14:53:48;14.70;58.90
2889;DHT22;1453;42.708;23.282;2023-12-28T14:56:15;14.30;59.20
2889;DHT22;1453;42.708;23.282;2023-12-28T14:58:41;14.10;60.30
2889;DHT22;1453;42.708;23.282;2023-12-28T15:01:13;13.90;60.70
2889;DHT22;1453;42.708;23.282;2023-12-28T15:03:43;13.80;61.20
2889;DHT22;1453;42.708;23.282;2023-12-28T15:06:09;13.70;61.90
2889;DHT22;1453;42.708;23.282;2023-12-28T15:08:35;13.60;62.00
2889;DHT22;1453;42.708;23.282;2023-12-28T15:11:02;13.60;62.50
2889;DHT22;1453;42.708;23.282;2023-12-28T15:13:29;13.30;62.80
2889;DHT22;1453;42.708;23.282;2023-12-28T15:15:55;13.20;63.70
2889;DHT22;1453;42.708;23.282;2023-12-28T15:18:22;13.00;64.10
2889;DHT22;1453;42.708;23.282;2023-12-28T15:20:48;13.00;64.30
2889;DHT22;1453;42.708;23.282;2023-12-28T15:23:15;12.80;64.50
2889;DHT22;1453;42.708;23.282;2023-12-28T15:25:42;12.70;65.40
2889;DHT22;1453;42.708;23.282;2023-12-28T15:28:08;12.70;65.50
2889;DHT22;1453;42.708;23.282;2023-12-28T15:30:35;12.70;65.50
2889;DHT22;1453;42.708;23.282;2023-12-28T15:33:01;12.50;66.40
2889;DHT22;1453;42.708;23.282;2023-12-28T15:35:27;11.90;68.00
2889;DHT22;1453;42.708;23.282;2023-12-28T15:37:54;11.50;70.50
2889;DHT22;1453;42.708;23.282;2023-12-28T15:40:21;10.50;77.60
2889;DHT22;1453;42.708;23.282;2023-12-28T15:42:49;9.80;90.80
2889;DHT22;1453;42.708;23.282;2023-12-28T15:45:15;9.90;96.80
2889;DHT22;1453;42.708;23.282;2023-12-28T15:47:41;9.90;99.90
2889;DHT22;1453;42.708;23.282;2023-12-28T15:50:07;10.20;99.90
2889;DHT22;1453;42.708;23.282;2023-12-28T15:52:34;10.50;99.90
2889;DHT22;1453;42.708;23.282;2023-12-28T15:55:00;10.50;99.90
2889;DHT22;1453;42.708;23.282;2023-12-28T15:57:26;10.50;99.90
2889;DHT22;1453;42.708;23.282;2023-12-28T15:59:52;10.60;99.90
2889;DHT22;1453;42.708;23.282;2023-12-28T16:02:24;10.50;99.90
2889;DHT22;1453;42.708;23.282;2023-12-28T16:04:51;10.50;99.90